Gainesville, TX (76240)

11:47 AM CDT on August 30, 2015 (GMT -0500)
East Gainesville Texas | | Change Station
CLOSE
Current Station
Personal Weather Station
Location: Gainesville, TX
Elevation: 764 ft
Nearby Weather Stations

Elev 764 ft 33.60 °N, 97.11 °W | Updated 8 minutes ago

Partly Cloudy
Partly Cloudy
95.0 °F
Feels Like 96 °F
N
7.3
Wind Variable Wind from SW

Today
High -- | Low -- °F
--% Chance of Precip.
Yesterday
High -- | Low -- °F
Precip. -- in
7:00 AM 7:56 PM
Full, 99% visible
Pressure 30.03 in
Visibility 10.0 miles
Clouds Scattered Clouds 11000 ft
Heat Index 96 °F
Dew Point 62 °F
Humidity 34%
Rainfall 0.00 in
Snow Depth Not available.
UV 7 out of 12
Pollen 8.70 out of 12
Air Quality Not available.
Flu Activity Not available.
METAR KGLE 301635Z AUTO 21007KT 10SM SCT110 32/13 A3003 RMK AO2 T03160128
Pressure 30.03 in
Visibility 10.0 miles
Clouds Scattered Clouds 11000 ft
Heat Index 96 °F
Dew Point 62 °F
Humidity 34%
Rainfall 0.00 in
Snow Depth Not available.
UV 7 out of 12
Pollen 8.70 out of 12
Air Quality Not available.
Flu Activity Not available.
METAR KGLE 301635Z AUTO 21007KT 10SM SCT110 32/13 A3003 RMK AO2 T03160128
Nowcast | as of 10:36 am CDT on August 30, 2015

Light rain showers will continue to across portions of central Texas into the afternoon hours. Rainfall amounts will be light... generally under 1/10 of an inch. Later this afternoon...showers and thunderstorms may develop. The activity will primarily impact areas south of the I-20 corridor. Those engaged in outdoor activities should keep abreast of the weather. Move indoors immediately if lightning is seen or thunder is heard.

×

10-Day Weather Forecast

×

Almanac

Astronomy

Aug. 30, 2015 Rise Set
Actual Time
Civil Twilight
Nautical Twilight
Astronomical Twilight
Moon
Length of Visible Light
Length of Day
Tomorrow will be .
, % of the Moon is Illuminated

Today's Extremes

State Highs State Lows

Community

WunderPhotos

Upload Photos

1,851,008 photos uploaded!

WunderBlogs® & News

Nearby

Air Quality

  Air Quality AQ Index Pollutant
Not available.

Snow Depth

Station Depth Elevation

Earthquake Activity

City Distance Mag. Time & Date
Minimum magnitude displayed is 2.5.

Coastal Water Temperatures

Place Temperature

Stations

Nearby Weather Stations

Station Location Temp. Windchill Dew Point Humidity Wind Precip. Elev Updated Type